Latest Coastal Weather Observations for East Sale

IDV60701

Issued at 2:31 am EST Tuesday 28 June 2016 (issued every 10 minutes, with the page automatically refreshed every 10 minutes)

About coastal observations | Map of coastal stations | Coastal observations for VIC | Marine services | Other Formats
Station Details ID: 085072 Name: EAST SALE AIRPORT Lat: -38.12 Lon: 147.13 Height: 4.6 m
Data from the previous 72 hours. | See also: Recent months at East Sale
Date/Time
EST
Temp
°C
Wind Pressure Rain since
9am
mm
Weather Cloud Vis
km
Sea
Height
m
Swell
Dir  Spd
kts
Gust
kts
hPa Trend Height
m
Period
s
Dir
28/02:30am 5.9 WNW 9 10 1020.8 - 0.0 - - 10 - - - -
28/02:00am 6.3 WNW 9 10 1020.9 - 0.0 - - 10 - - - -
28/01:30am 5.0 WNW 7 8 1020.7 - 0.0 - - 10 - - - -
28/01:00am 4.3 WNW 7 7 1020.8 - 0.0 - - 10 - - - -
28/12:30am 5.5 WNW 8 9 1020.8 - 0.0 - - 10 - - - -
28/12:00am 5.4 WNW 9 9 1020.7 R 0.0 - Mostly clear 10 - - - -
 
Date/Time
EST
Temp
°C
Wind Pressure Rain since
9am
mm
Weather Cloud Vis
km
Sea
Height
m
Swell
Dir  Spd
kts
Gust
kts
hPa Trend Height
m
Period
s
Dir
27/11:30pm 6.6 WNW 9 10 1020.6 - 0.0 - - 10 - - - -
27/11:00pm 7.1 WNW 8 8 1020.5 - 0.0 - - 10 - - - -
27/10:30pm 7.4 WNW 8 10 1020.3 - 0.0 - - 10 - - - -
27/10:00pm 7.8 W 10 13 1020.0 - 0.0 - - 10 - - - -
27/09:30pm 8.1 W 11 13 1020.0 - 0.0 - - 10 - - - -
27/09:00pm 8.0 W 9 11 1020.0 R 0.0 - - 10 - - - -
27/08:30pm 7.5 WSW 8 11 1020.0 - 0.0 - - 10 - - - -
27/08:00pm 7.4 WSW 7 9 1019.7 - 0.0 - - 10 - - - -
27/07:30pm 7.3 SW 7 11 1019.5 - 0.0 - - 10 - - - -
27/07:00pm 8.2 W 7 9 1019.1 - 0.0 - - 10 - - - -
27/06:30pm 9.1 W 7 9 1018.8 - 0.0 - Partly cloudy 10 - - - -
27/06:00pm 9.2 W 8 11 1018.5 R 0.0 - Cloudy 10 - - - -
27/05:30pm 9.5 W 10 13 1018.1 - 0.0 - Partly cloudy 10 - - - -
27/05:00pm 9.8 W 12 16 1017.6 - 0.0 - Partly cloudy 10 - - - -
27/04:30pm 10.5 WSW 14 20 1017.2 - 0.0 - Partly cloudy 10 - - - -
27/04:00pm 10.9 WSW 15 24 1017.0 - 0.0 - Partly cloudy 10 - - - -
27/03:30pm 10.9 WSW 15 21 1016.5 - 0.0 - Partly cloudy 10 - - - -
27/03:00pm 11.3 WSW 14 19 1016.4 R 0.0 - Cloudy 10 - - - -
27/02:30pm 12.0 WSW 18 23 1016.0 - 0.0 - - 10 - - - -
27/02:00pm 12.1 WSW 16 23 1015.7 - 0.0 - Partly cloudy 10 - - - -
27/01:30pm 12.4 WSW 15 23 1015.8 - 0.0 - Partly cloudy 10 - - - -
27/01:00pm 12.1 W 15 20 1015.8 - 0.0 - - 10 - - - -
27/12:30pm 12.1 W 14 19 1015.9 - 0.0 - - 10 - - - -
27/12:00pm 11.0 WNW 13 16 1016.4 R 0.0 - - 10 - - - -
27/11:30am 9.9 WNW 14 17 1016.7 - 0.0 - - 10 - - - -
27/11:00am 9.2 WNW 13 17 1016.8 - 0.0 - - 10 - - - -
27/10:30am 8.2 W 13 16 1017.1 - 0.0 - - 10 - - - -
27/10:00am 7.7 W 11 14 1017.1 - 0.0 - Partly cloudy 10 - - - -
27/09:30am 7.7 WNW 9 11 1017.1 - 0.0 - - 10 - - - -
27/09:00am 6.0 WNW 8 9 1017.0 F 0.0 - - 10 - - - -
27/08:30am 3.3 NW 5 6 1017.0 - 0.0 - Partly cloudy 10 - - - -
27/08:00am 1.7 NW 5 5 1016.9 - 0.0 - - 10 - - - -
27/07:30am 1.4 NW 5 5 1016.9 - 0.0 - - 10 - - - -
27/07:00am 1.7 NW 5 6 1016.7 - 0.0 - - 10 - - - -
27/06:30am 1.7 NW 5 6 1016.5 - 0.0 - - 10 - - - -
27/06:00am 2.6 NW 7 8 1016.5 F 0.0 - Mostly cloudy 10 - - - -
27/05:30am 1.8 NW 6 7 1016.2 - 0.0 - - 10 - - - -
27/05:00am 1.4 NNW 5 6 1016.2 - 0.0 - - 10 - - - -
27/04:30am 1.9 NW 5 7 1016.1 - 0.0 - - 10 - - - -
27/04:00am 2.4 NW 6 7 1016.1 - 0.0 - - 10 - - - -
27/03:30am 2.1 WNW 6 6 1016.3 - 0.0 - - 10 - - - -
27/03:00am 2.3 W 4 5 1016.5 R 0.0 - - 10 - - - -
27/02:30am 2.3 WNW 4 5 1016.5 - 0.0 - - 10 - - - -
27/02:00am 3.3 WNW 6 7 1016.5 - 0.0 - - 10 - - - -
27/01:30am 3.6 W 6 7 1016.7 - 0.0 - - 10 - - - -
27/01:00am 4.4 WNW 5 6 1016.5 - 0.0 - Partly cloudy 10 - - - -
27/12:30am 5.5 NW 5 7 1016.7 - 0.0 - Cloudy 10 - - - -
27/12:00am 5.7 WNW 7 8 1016.5 F 0.0 - Mostly cloudy 10 - - - -
 
Date/Time
EST
Temp
°C
Wind Pressure Rain since
9am
mm
Weather Cloud Vis
km
Sea
Height
m
Swell
Dir  Spd
kts
Gust
kts
hPa Trend Height
m
Period
s
Dir
26/11:30pm 6.2 W 10 14 1016.5 - 0.0 - Cloudy 10 - - - -
26/11:00pm 6.4 W 10 16 1016.6 - 0.0 - Cloudy 10 - - - -
26/10:30pm 5.7 W 6 9 1016.6 - 0.0 - Partly cloudy 10 - - - -
26/10:00pm 5.3 W 7 8 1016.7 - 0.0 - - 10 - - - -
26/09:30pm 5.8 W 7 8 1016.8 - 0.0 - - 10 - - - -
26/09:00pm 6.0 WSW 7 9 1016.9 F 0.0 - Mostly cloudy 10 - - - -
26/08:30pm 6.3 WSW 6 7 1017.0 - 0.0 - - 10 - - - -
26/08:00pm 7.5 SW 4 5 1017.2 - 0.0 - Partly cloudy 10 - - - -
26/07:30pm 7.0 SW 5 6 1017.2 - 0.0 - Partly cloudy 10 - - - -
26/07:00pm 7.2 WSW 7 9 1017.1 - 0.0 - - 10 - - - -
26/06:30pm 7.8 WSW 6 7 1017.1 - 0.0 - Partly cloudy 10 - - - -
26/06:00pm 8.2 W 7 8 1016.8 F 0.0 - Mostly cloudy 10 - - - -
26/05:30pm 7.9 WNW 7 8 1016.6 - 0.0 - - 10 - - - -
26/05:00pm 8.0 NW 5 5 1016.4 - 0.0 - - 10 - - - -
26/04:30pm 9.5 WNW 6 6 1016.4 - 0.0 - - 10 - - - -
26/04:00pm 11.2 WNW 6 7 1016.3 - 0.0 - - 10 - - - -
26/03:30pm 11.8 NW 5 7 1016.3 - 0.0 - - 10 - - - -
26/03:00pm 12.3 NW 6 7 1016.6 F 0.0 - - 10 - - - -
26/02:30pm 12.7 NW 7 10 1016.6 - 0.0 - - 10 - - - -
26/02:00pm 12.2 WNW 6 8 1016.9 - 0.0 - - 10 - - - -
26/01:30pm 12.0 W 8 10 1017.1 - 0.0 - - 10 - - - -
26/01:00pm 11.5 W 7 9 1017.3 - 0.0 - - 10 - - - -
26/12:30pm 11.4 WSW 4 8 1017.9 - 0.0 - - 10 - - - -
26/12:00pm 10.4 WNW 4 6 1018.5 F 0.0 - - 10 - - - -
26/11:30am 10.4 WNW 8 9 1019.4 - 0.0 - - 10 - - - -
26/11:00am 9.6 WNW 8 10 1019.9 - 0.0 - - 10 - - - -
26/10:30am 9.4 WNW 8 10 1020.5 - 0.0 - - 10 - - - -
26/10:00am 8.6 WNW 8 9 1020.8 - 0.0 - - 10 - - - -
26/09:30am 7.6 WNW 7 9 1020.8 - 0.0 - - 10 - - - -
26/09:00am 6.3 NW 7 8 1020.8 F 0.0 - - 10 - - - -
26/08:30am 5.3 W 7 8 1020.9 - 0.0 - Partly cloudy 10 - - - -
26/08:00am 4.8 W 8 10 1020.9 - 0.0 - Cloudy 10 - - - -
26/07:30am 4.4 WNW 6 7 1021.0 - 0.0 - Partly cloudy 10 - - - -
26/07:00am 4.0 NW 8 9 1020.9 - 0.0 - - 10 - - - -
26/06:30am 4.7 NW 8 9 1020.5 - 0.0 - - 10 - - - -
26/06:00am 4.8 NW 9 10 1020.3 F 0.0 - - 10 - - - -
26/05:30am 5.4 WNW 6 6 1020.1 - 0.0 - Partly cloudy 10 - - - -
26/05:00am 6.0 W 7 8 1020.0 - 0.0 - Partly cloudy 10 - - - -
26/04:30am 6.7 WNW 8 8 1020.6 - 0.0 - Cloudy 10 - - - -
26/04:00am 6.5 W 7 9 1020.8 - 0.0 - Partly cloudy 10 - - - -
26/03:30am 6.1 WNW 7 9 1021.0 - 0.0 - Partly cloudy 10 - - - -
26/03:00am 5.4 NW 8 9 1021.0 F 0.0 - Cloudy 10 - - - -
26/02:30am 5.3 WNW 7 8 1021.0 - 0.0 - Partly cloudy 10 - - - -
26/02:00am 5.2 WNW 8 9 1021.1 - 0.0 - Cloudy 10 - - - -
26/01:30am 4.6 NW 8 9 1021.3 - 0.0 - Partly cloudy 10 - - - -
26/01:00am 5.7 NNW 7 9 1021.1 - 0.0 - Partly cloudy 10 - - - -
26/12:30am 5.6 WNW 8 9 1021.2 - 0.0 - Cloudy 10 - - - -
26/12:00am 5.3 NW 7 9 1021.6 F 0.0 - Cloudy 10 - - - -
 
Date/Time
EST
Temp
°C
Wind Pressure Rain since
9am
mm
Weather Cloud Vis
km
Sea
Height
m
Swell
Dir  Spd
kts
Gust
kts
hPa Trend Height
m
Period
s
Dir
25/11:30pm 4.8 WNW 8 9 1021.7 - 0.0 - Cloudy 10 - - - -
25/11:00pm 3.8 WNW 9 10 1021.8 - 0.0 - Partly cloudy 10 - - - -
25/10:30pm 3.6 WNW 7 9 1021.9 - 0.0 - - 10 - - - -
25/10:00pm 4.1 NW 6 7 1022.1 - 0.0 - - 10 - - - -
25/09:30pm 4.9 NW 6 7 1022.1 - 0.0 - - 10 - - - -
25/09:00pm 4.9 NW 6 7 1022.1 F 0.0 - - 10 - - - -
25/08:30pm 5.2 NW 7 8 1022.4 - 0.0 - Partly cloudy 10 - - - -
25/08:00pm 6.2 WNW 6 7 1022.5 - 0.0 - Partly cloudy 10 - - - -
25/07:30pm 6.7 W 6 7 1022.5 - 0.0 - Partly cloudy 10 - - - -
25/07:00pm 7.7 W 7 8 1022.4 - 0.0 - Partly cloudy 10 - - - -
25/06:30pm 8.3 W 7 9 1022.4 - 0.0 - Partly cloudy 10 - - - -
25/06:00pm 7.8 W 8 10 1022.2 R 0.0 - - 10 - - - -
25/05:30pm 9.0 W 9 11 1021.9 - 0.0 - Partly cloudy 10 - - - -
25/05:00pm 9.5 W 11 15 1021.7 - 0.0 - Partly cloudy 10 - - - -
25/04:30pm 9.9 W 12 15 1021.5 - 0.0 - - 10 - - - -
25/04:00pm 10.5 W 11 17 1021.4 - 0.0 - - 10 - - - -
25/03:30pm 10.7 W 15 20 1021.2 - 0.0 - Partly cloudy 10 - - - -
25/03:00pm 11.0 W 15 21 1021.1 R 0.0 - Mostly clear 10 - - - -
25/02:30pm 10.6 W 16 22 1021.1 - 0.0 - Partly cloudy 10 - - - -
25/02:00pm 10.7 W 14 20 1021.1 - 0.0 - - 10 - - - -
25/01:30pm 10.4 W 14 19 1021.2 - 0.0 - - 10 - - - -
25/01:00pm 10.1 W 14 17 1021.4 - 0.0 - Partly cloudy 10 - - - -
25/12:30pm 9.5 W 15 20 1021.6 - 0.0 - Partly cloudy 10 - - - -
25/12:00pm 9.0 W 17 22 1021.9 R 0.0 - Mostly cloudy 10 - - - -
25/11:30am 9.0 W 16 19 1022.1 - 0.0 - Partly cloudy 10 - - - -
25/11:00am 8.7 W 15 19 1022.2 - 0.0 - Partly cloudy 10 - - - -
25/10:30am 8.5 W 15 20 1022.1 - 0.0 - Partly cloudy 10 - - - -
25/10:00am 7.4 W 14 18 1021.9 - 0.0 - Partly cloudy 10 - - - -
25/09:30am 6.8 W 12 16 1021.6 - 0.0 - - 10 - - - -
25/09:00am 5.9 W 12 15 1021.3 R 0.6 - Partly cloudy 10 - - - -
25/08:30am 5.2 W 11 14 1021.1 - 0.6 - - 10 - - - -
25/08:00am 4.6 W 12 14 1020.9 - 0.6 - Partly cloudy 10 - - - -
25/07:30am 4.9 W 13 17 1020.7 - 0.6 - Partly cloudy 10 - - - -
25/07:00am 4.3 WNW 11 13 1020.2 - 0.4 - Partly cloudy 10 - - - -
25/06:30am 4.6 WNW 11 14 1019.9 - 0.4 - Partly cloudy 10 - - - -
25/06:00am 4.1 W 9 11 1019.8 R 0.4 - Partly cloudy 10 - - - -
25/05:30am 3.8 WNW 9 11 1019.2 - 0.4 - - 10 - - - -
25/05:00am 3.8 W 9 11 1018.8 - 0.4 - - 10 - - - -
25/04:30am 3.6 W 10 12 1018.5 - 0.4 - - 10 - - - -
25/04:00am 3.9 W 11 14 1018.1 - 0.4 - - 10 - - - -
25/03:30am 3.7 W 10 13 1018.0 - 0.4 - - 10 - - - -
25/03:00am 3.0 WNW 9 11 1017.9 R 0.4 - - 10 - - - -

Other Formats:

Comma delimited format used in spreadsheet applications
http://www.bom.gov.au/fwo/IDV60701/IDV60701.94907.axf

JavaScript Object Notation format (JSON) in row-major order
http://www.bom.gov.au/fwo/IDV60701/IDV60701.94907.json